Victory — WDB9496 — position and weather

sailwx.info

Track history (hours):
 
Tides and Currents Weather Stations Pressure Air Temp Water Temp Dewpoint Dewpoint Depression Visibility Wind Speed Wind Dir Waves Ship Positions

Victory

Owner: XENIOS, GEORGE, WILMINGTON, CA. More information available from US FCC via Universal Licensing System and Coast Guard Vessel Documentation Center.

Last reported at 2017-Sep-21 20:48 UTC. Time now 2017-Sep-21 23:10 UTC.
Position N 33°45' W 118°13'.

Type: Passenger vessel. MMSI: 366977270.

Date/timePositionNaut miles runAvg speedWind from/ knotsBaromVisibWave heightAir tempDewpointWater temp
2017-Sep-21 20:48N 33°45' W 118°13'3 8.2
2017-Sep-21 20:30N 33°43' W 118°14'3 6.8
2017-Sep-21 20:00N 33°40' W 118°15'2 3.3
2017-Sep-21 19:25N 33°38' W 118°14'1 1.4
2017-Sep-21 18:57N 33°38' W 118°13'0 0.0
2017-Sep-21 18:29N 33°38' W 118°13'0 0.0
2017-Sep-21 17:58N 33°38' W 118°13'1 3.0
2017-Sep-21 17:30N 33°39' W 118°13'1 1.9
2017-Sep-21 17:00N 33°39' W 118°14'1 3.0
2017-Sep-21 16:30N 33°38' W 118°12'1 2.2
2017-Sep-21 16:00N 33°39' W 118°13'0 0.9
2017-Sep-21 15:30N 33°38' W 118°13'2 3.6
2017-Sep-21 15:00N 33°38' W 118°11'4 8.4
2017-Sep-21 14:29N 33°42' W 118°09'1 2.7
2017-Sep-21 14:00N 33°44' W 118°08'4 8.1
2017-Sep-21 13:30N 33°45' W 118°13'1 2.9
2017-Sep-21 13:00N 33°46' W 118°13'1 0.1
2017-Sep-21 00:08N 33°45' W 118°13'1 7.6
2017-Sep-21 00:00N 33°45' W 118°13'3 6.0
2017-Sep-20 23:30N 33°44' W 118°17'0 0.4
2017-Sep-20 23:00N 33°44' W 118°16'2 4.6
2017-Sep-20 22:29N 33°41' W 118°17'0 0.0
2017-Sep-20 21:58N 33°41' W 118°17'1 2.6
2017-Sep-20 21:30N 33°40' W 118°17'0 0.5
2017-Sep-20 21:00N 33°40' W 118°17'1 1.8
2017-Sep-20 20:16N 33°39' W 118°16'0 0.2
2017-Sep-20 20:00N 33°39' W 118°16'0 0.1
2017-Sep-20 19:30N 33°39' W 118°16'2 4.4
2017-Sep-20 19:00N 33°40' W 118°14'0 0.4
2017-Sep-20 18:30N 33°40' W 118°13'1 1.6
2017-Sep-20 17:59N 33°39' W 118°14'1 1.9
2017-Sep-20 17:23N 33°38' W 118°13'1 1.6
2017-Sep-20 16:59N 33°38' W 118°13'1 1.9
2017-Sep-20 16:30N 33°38' W 118°12'1 1.9
2017-Sep-20 15:45N 33°38' W 118°13'1 3.6
2017-Sep-20 15:28N 33°39' W 118°14'1 2.8
2017-Sep-20 14:57N 33°39' W 118°13'6 6.2
2017-Sep-20 14:00N 33°44' W 118°08'4 6.9
2017-Sep-20 13:30N 33°44' W 118°13'2 3.9
2017-Sep-20 13:00N 33°46' W 118°13'  
2017-Sep-16 23:33N 33°42' W 118°16'0 9.4
2017-Sep-16 23:30N 33°42' W 118°17'6 0.8
2017-Sep-16 15:54N 33°44' W 118°24'4 8.5
2017-Sep-16 15:22N 33°42' W 118°19'3 8.2
2017-Sep-16 15:00N 33°42' W 118°15'4 8.7
2017-Sep-16 14:30N 33°44' W 118°10'1 2.8
2017-Sep-16 13:59N 33°44' W 118°08'4 8.0
2017-Sep-16 13:29N 33°45' W 118°13'2 3.3
2017-Sep-16 13:00N 33°46' W 118°13'26 1.4
2017-Sep-15 18:37N 33°21' W 118°19'2 8.5
2017-Sep-15 18:26N 33°20' W 118°18'2 4.8
2017-Sep-15 18:00N 33°18' W 118°19'0 0.4
2017-Sep-15 17:30N 33°18' W 118°19'17 7.5
2017-Sep-15 15:17N 33°33' W 118°10'3 8.9
2017-Sep-15 15:00N 33°36' W 118°09'5 9.0
2017-Sep-15 14:29N 33°40' W 118°09'3 6.9
2017-Sep-15 14:00N 33°43' W 118°09'3 6.7
2017-Sep-15 13:30N 33°44' W 118°13'2 3.9
2017-Sep-15 13:00N 33°46' W 118°13'2 0.1
2017-Sep-14 23:08N 33°45' W 118°13'1 8.4
2017-Sep-14 23:00N 33°44' W 118°13'4 8.2
2017-Sep-14 22:30N 33°40' W 118°14'0 0.4
2017-Sep-14 22:00N 33°40' W 118°14'1 1.2
2017-Sep-14 21:30N 33°39' W 118°14'2 3.0
2017-Sep-14 21:00N 33°38' W 118°13'0 0.9
2017-Sep-14 20:30N 33°38' W 118°13'1 1.7
2017-Sep-14 20:00N 33°39' W 118°13'1 2.0
2017-Sep-14 19:30N 33°38' W 118°12'4 6.3
2017-Sep-14 18:50N 33°39' W 118°07'1 2.8
2017-Sep-14 18:30N 33°39' W 118°06'1 1.8
2017-Sep-14 18:00N 33°38' W 118°06'2 3.3
2017-Sep-14 17:30N 33°36' W 118°06'0 0.4
2017-Sep-14 16:48N 33°37' W 118°06'2 3.9
2017-Sep-14 16:19N 33°36' W 118°09'1 3.1
2017-Sep-14 15:57N 33°37' W 118°09'2 4.4
2017-Sep-14 15:30N 33°39' W 118°09'4 8.3
2017-Sep-14 14:59N 33°43' W 118°08'1 2.0
2017-Sep-14 14:30N 33°44' W 118°09'4 7.9
2017-Sep-14 14:00N 33°46' W 118°13'1 1.5
2017-Sep-14 13:27N 33°46' W 118°13'0 0.0
2017-Sep-14 12:59N 33°46' W 118°13'3 0.2
2017-Sep-13 23:13N 33°43' W 118°14'2 7.3
2017-Sep-13 23:00N 33°42' W 118°14'3 5.9
2017-Sep-13 22:30N 33°39' W 118°13'1 1.0
2017-Sep-13 22:00N 33°39' W 118°13'1 1.6
2017-Sep-13 21:30N 33°39' W 118°14'0 0.3
2017-Sep-13 20:59N 33°39' W 118°14'1 2.2
2017-Sep-13 20:30N 33°39' W 118°13'1 1.3
2017-Sep-13 20:00N 33°39' W 118°12'1 2.4
2017-Sep-13 19:30N 33°38' W 118°12'0 0.7
2017-Sep-13 19:00N 33°38' W 118°12'1 1.8
2017-Sep-13 18:30N 33°39' W 118°13'0 0.6
2017-Sep-13 18:00N 33°38' W 118°13'0 0.1
2017-Sep-13 17:30N 33°38' W 118°13'0 0.0
2017-Sep-13 17:00N 33°38' W 118°13'0 0.5
2017-Sep-13 16:30N 33°39' W 118°13'1 1.5
2017-Sep-13 15:59N 33°39' W 118°14'1 1.2
2017-Sep-13 15:30N 33°39' W 118°13'2 2.9
2017-Sep-13 14:59N 33°38' W 118°12'1 2.8
2017-Sep-13 14:30N 33°40' W 118°12'4 7.5
2017-Sep-13 14:00N 33°43' W 118°11'2 4.4
2017-Sep-13 13:30N 33°45' W 118°13'2 3.5
2017-Sep-13 13:00N 33°46' W 118°13'1 0.1
2017-Sep-12 22:56N 33°45' W 118°13'3 7.9
2017-Sep-12 22:31N 33°43' W 118°15'2 3.4
2017-Sep-12 22:00N 33°41' W 118°16'0 0.2
2017-Sep-12 21:31N 33°41' W 118°16'0 0.8
2017-Sep-12 21:00N 33°41' W 118°16'1 2.4
2017-Sep-12 20:30N 33°40' W 118°15'1 2.3
2017-Sep-12 20:00N 33°39' W 118°15'4 7.2
2017-Sep-12 19:30N 33°37' W 118°11'0 0.8
2017-Sep-12 19:01N 33°37' W 118°10'1 2.2
2017-Sep-12 18:28N 33°36' W 118°11'0 0.1
2017-Sep-12 18:00N 33°36' W 118°12'2 3.7
2017-Sep-12 17:31N 33°35' W 118°10'0 0.2
2017-Sep-12 17:01N 33°35' W 118°10'0 0.0
2017-Sep-12 16:30N 33°35' W 118°10'0 0.4
2017-Sep-12 16:00N 33°35' W 118°09'2 4.7
2017-Sep-12 15:30N 33°36' W 118°07'3 5.5
2017-Sep-12 15:01N 33°39' W 118°06'4 7.6
2017-Sep-12 14:30N 33°43' W 118°08'1 2.3
2017-Sep-12 14:00N 33°44' W 118°08'4 8.0
2017-Sep-12 13:31N 33°45' W 118°13'  
Track history (hours):
 
Tides and Currents Weather Stations Pressure Air Temp Water Temp Dewpoint Dewpoint Depression Visibility Wind Speed Wind Dir Waves Ship Positions

Victory

Owner: XENIOS, GEORGE, WILMINGTON, CA. More information available from US FCC via Universal Licensing System and Coast Guard Vessel Documentation Center.

Last reported at 2017-Sep-21 20:48 UTC. Time now 2017-Sep-21 23:10 UTC.
Position N 33°45' W 118°13'.

Type: Passenger vessel. MMSI: 366977270.

Date/timePositionNaut miles runAvg speedWind from/ knotsBaromVisibWave heightAir tempDewpointWater temp
2017-Sep-21 20:48N 33°45' W 118°13'3 8.2
2017-Sep-21 20:30N 33°43' W 118°14'3 6.8
2017-Sep-21 20:00N 33°40' W 118°15'2 3.3
2017-Sep-21 19:25N 33°38' W 118°14'1 1.4
2017-Sep-21 18:57N 33°38' W 118°13'0 0.0
2017-Sep-21 18:29N 33°38' W 118°13'0 0.0
2017-Sep-21 17:58N 33°38' W 118°13'1 3.0
2017-Sep-21 17:30N 33°39' W 118°13'1 1.9
2017-Sep-21 17:00N 33°39' W 118°14'1 3.0
2017-Sep-21 16:30N 33°38' W 118°12'1 2.2
2017-Sep-21 16:00N 33°39' W 118°13'0 0.9
2017-Sep-21 15:30N 33°38' W 118°13'2 3.6
2017-Sep-21 15:00N 33°38' W 118°11'4 8.4
2017-Sep-21 14:29N 33°42' W 118°09'1 2.7
2017-Sep-21 14:00N 33°44' W 118°08'4 8.1
2017-Sep-21 13:30N 33°45' W 118°13'1 2.9
2017-Sep-21 13:00N 33°46' W 118°13'1 0.1
2017-Sep-21 00:08N 33°45' W 118°13'1 7.6
2017-Sep-21 00:00N 33°45' W 118°13'3 6.0
2017-Sep-20 23:30N 33°44' W 118°17'0 0.4
2017-Sep-20 23:00N 33°44' W 118°16'2 4.6
2017-Sep-20 22:29N 33°41' W 118°17'0 0.0
2017-Sep-20 21:58N 33°41' W 118°17'1 2.6
2017-Sep-20 21:30N 33°40' W 118°17'0 0.5
2017-Sep-20 21:00N 33°40' W 118°17'1 1.8
2017-Sep-20 20:16N 33°39' W 118°16'0 0.2
2017-Sep-20 20:00N 33°39' W 118°16'0 0.1
2017-Sep-20 19:30N 33°39' W 118°16'2 4.4
2017-Sep-20 19:00N 33°40' W 118°14'0 0.4
2017-Sep-20 18:30N 33°40' W 118°13'1 1.6
2017-Sep-20 17:59N 33°39' W 118°14'1 1.9
2017-Sep-20 17:23N 33°38' W 118°13'1 1.6
2017-Sep-20 16:59N 33°38' W 118°13'1 1.9
2017-Sep-20 16:30N 33°38' W 118°12'1 1.9
2017-Sep-20 15:45N 33°38' W 118°13'1 3.6
2017-Sep-20 15:28N 33°39' W 118°14'1 2.8
2017-Sep-20 14:57N 33°39' W 118°13'6 6.2
2017-Sep-20 14:00N 33°44' W 118°08'4 6.9
2017-Sep-20 13:30N 33°44' W 118°13'2 3.9
2017-Sep-20 13:00N 33°46' W 118°13'  
2017-Sep-16 23:33N 33°42' W 118°16'0 9.4
2017-Sep-16 23:30N 33°42' W 118°17'6 0.8
2017-Sep-16 15:54N 33°44' W 118°24'4 8.5
2017-Sep-16 15:22N 33°42' W 118°19'3 8.2
2017-Sep-16 15:00N 33°42' W 118°15'4 8.7
2017-Sep-16 14:30N 33°44' W 118°10'1 2.8
2017-Sep-16 13:59N 33°44' W 118°08'4 8.0
2017-Sep-16 13:29N 33°45' W 118°13'2 3.3
2017-Sep-16 13:00N 33°46' W 118°13'26 1.4
2017-Sep-15 18:37N 33°21' W 118°19'2 8.5
2017-Sep-15 18:26N 33°20' W 118°18'2 4.8
2017-Sep-15 18:00N 33°18' W 118°19'0 0.4
2017-Sep-15 17:30N 33°18' W 118°19'17 7.5
2017-Sep-15 15:17N 33°33' W 118°10'3 8.9
2017-Sep-15 15:00N 33°36' W 118°09'5 9.0
2017-Sep-15 14:29N 33°40' W 118°09'3 6.9
2017-Sep-15 14:00N 33°43' W 118°09'3 6.7
2017-Sep-15 13:30N 33°44' W 118°13'2 3.9
2017-Sep-15 13:00N 33°46' W 118°13'2 0.1
2017-Sep-14 23:08N 33°45' W 118°13'1 8.4
2017-Sep-14 23:00N 33°44' W 118°13'4 8.2
2017-Sep-14 22:30N 33°40' W 118°14'0 0.4
2017-Sep-14 22:00N 33°40' W 118°14'1 1.2
2017-Sep-14 21:30N 33°39' W 118°14'2 3.0
2017-Sep-14 21:00N 33°38' W 118°13'0 0.9
2017-Sep-14 20:30N 33°38' W 118°13'1 1.7
2017-Sep-14 20:00N 33°39' W 118°13'1 2.0
2017-Sep-14 19:30N 33°38' W 118°12'4 6.3
2017-Sep-14 18:50N 33°39' W 118°07'1 2.8
2017-Sep-14 18:30N 33°39' W 118°06'1 1.8
2017-Sep-14 18:00N 33°38' W 118°06'2 3.3
2017-Sep-14 17:30N 33°36' W 118°06'0 0.4
2017-Sep-14 16:48N 33°37' W 118°06'2 3.9
2017-Sep-14 16:19N 33°36' W 118°09'1 3.1
2017-Sep-14 15:57N 33°37' W 118°09'2 4.4
2017-Sep-14 15:30N 33°39' W 118°09'4 8.3
2017-Sep-14 14:59N 33°43' W 118°08'1 2.0
2017-Sep-14 14:30N 33°44' W 118°09'4 7.9
2017-Sep-14 14:00N 33°46' W 118°13'1 1.5
2017-Sep-14 13:27N 33°46' W 118°13'0 0.0
2017-Sep-14 12:59N 33°46' W 118°13'3 0.2
2017-Sep-13 23:13N 33°43' W 118°14'2 7.3
2017-Sep-13 23:00N 33°42' W 118°14'3 5.9
2017-Sep-13 22:30N 33°39' W 118°13'1 1.0
2017-Sep-13 22:00N 33°39' W 118°13'1 1.6
2017-Sep-13 21:30N 33°39' W 118°14'0 0.3
2017-Sep-13 20:59N 33°39' W 118°14'1 2.2
2017-Sep-13 20:30N 33°39' W 118°13'1 1.3
2017-Sep-13 20:00N 33°39' W 118°12'1 2.4
2017-Sep-13 19:30N 33°38' W 118°12'0 0.7
2017-Sep-13 19:00N 33°38' W 118°12'1 1.8
2017-Sep-13 18:30N 33°39' W 118°13'0 0.6
2017-Sep-13 18:00N 33°38' W 118°13'0 0.1
2017-Sep-13 17:30N 33°38' W 118°13'0 0.0
2017-Sep-13 17:00N 33°38' W 118°13'0 0.5
2017-Sep-13 16:30N 33°39' W 118°13'1 1.5
2017-Sep-13 15:59N 33°39' W 118°14'1 1.2
2017-Sep-13 15:30N 33°39' W 118°13'2 2.9
2017-Sep-13 14:59N 33°38' W 118°12'1 2.8
2017-Sep-13 14:30N 33°40' W 118°12'4 7.5
2017-Sep-13 14:00N 33°43' W 118°11'2 4.4
2017-Sep-13 13:30N 33°45' W 118°13'2 3.5
2017-Sep-13 13:00N 33°46' W 118°13'1 0.1
2017-Sep-12 22:56N 33°45' W 118°13'3 7.9
2017-Sep-12 22:31N 33°43' W 118°15'2 3.4
2017-Sep-12 22:00N 33°41' W 118°16'0 0.2
2017-Sep-12 21:31N 33°41' W 118°16'0 0.8
2017-Sep-12 21:00N 33°41' W 118°16'1 2.4
2017-Sep-12 20:30N 33°40' W 118°15'1 2.3
2017-Sep-12 20:00N 33°39' W 118°15'4 7.2
2017-Sep-12 19:30N 33°37' W 118°11'0 0.8
2017-Sep-12 19:01N 33°37' W 118°10'1 2.2
2017-Sep-12 18:28N 33°36' W 118°11'0 0.1
2017-Sep-12 18:00N 33°36' W 118°12'2 3.7
2017-Sep-12 17:31N 33°35' W 118°10'0 0.2
2017-Sep-12 17:01N 33°35' W 118°10'0 0.0
2017-Sep-12 16:30N 33°35' W 118°10'0 0.4
2017-Sep-12 16:00N 33°35' W 118°09'2 4.7
2017-Sep-12 15:30N 33°36' W 118°07'3 5.5
2017-Sep-12 15:01N 33°39' W 118°06'4 7.6
2017-Sep-12 14:30N 33°43' W 118°08'1 2.3
2017-Sep-12 14:00N 33°44' W 118°08'4 8.0
2017-Sep-12 13:31N 33°45' W 118°13'  

Dump ship's entire track history